Time;durP1;ratioP1;P1;durP2;ratioP2;P2;SDS_P1;SDS_P2;PMS_P1;PMS_P2;Temp;Humidity;BMP_temperature;BMP_pressure;BME280_temperature;BME280_humidity;BME280_pressure;Samples;Min_cycle;Max_cycle;Signal;HPM_P1;HPM_P2
2021/12/29 00:01:52;;;;;;;2.22;2.13;;;4.50;99.90;;;;;;5091174;28;20028;-53
2021/12/29 00:04:17;;;;;;;3.63;3.25;;;4.60;99.90;;;;;;5090851;28;20024;-54
2021/12/29 00:06:43;;;;;;;5.68;5.05;;;4.60;99.90;;;;;;5091432;28;20032;-54
2021/12/29 00:09:10;;;;;;;2.58;2.28;;;4.60;99.90;;;;;;5094245;28;20039;-54
2021/12/29 00:11:38;;;;;;;5.10;2.55;;;4.80;99.90;;;;;;5094379;28;20024;-55
2021/12/29 00:14:05;;;;;;;5.32;2.85;;;4.80;99.90;;;;;;5094503;28;20085;-55
2021/12/29 00:16:35;;;;;;;2.65;2.42;;;4.80;99.90;;;;;;5094337;28;20024;-55
2021/12/29 00:19:07;;;;;;;5.75;2.30;;;4.80;99.90;;;;;;5094553;28;20032;-56
2021/12/29 00:21:35;;;;;;;3.03;2.40;;;4.80;99.90;;;;;;5094410;28;20505;-56
2021/12/29 00:24:02;;;;;;;7.13;2.38;;;4.80;99.90;;;;;;5093916;28;20039;-56
2021/12/29 00:26:30;;;;;;;2.65;2.17;;;4.80;99.90;;;;;;5093804;28;20040;-55
2021/12/29 00:29:00;;;;;;;3.65;2.40;;;4.80;99.90;;;;;;5094292;28;20433;-55
2021/12/29 00:31:30;;;;;;;4.82;2.20;;;4.80;99.90;;;;;;5094113;28;20063;-54
2021/12/29 00:33:56;;;;;;;6.18;2.50;;;4.80;99.90;;;;;;5094229;28;20051;-55
2021/12/29 00:36:22;;;;;;;5.03;2.60;;;4.80;99.90;;;;;;5075877;28;20023;-56
2021/12/29 00:38:48;;;;;;;2.20;2.08;;;4.70;99.90;;;;;;5094066;28;20021;-55
2021/12/29 00:41:15;;;;;;;3.72;2.05;;;4.80;99.90;;;;;;5094082;28;20035;-51
2021/12/29 00:43:41;;;;;;;4.53;2.10;;;5.00;99.90;;;;;;5093970;28;20035;-55
2021/12/29 00:46:08;;;;;;;3.28;2.22;;;5.00;99.90;;;;;;5093670;28;20023;-54
2021/12/29 00:48:38;;;;;;;6.75;2.33;;;5.00;99.90;;;;;;5093462;28;20081;-55
2021/12/29 00:51:04;;;;;;;2.53;2.33;;;5.00;99.90;;;;;;5093740;28;20355;-56
2021/12/29 00:53:30;;;;;;;14.25;3.13;;;5.20;99.90;;;;;;5093652;28;20073;-54
2021/12/29 00:55:56;;;;;;;2.80;2.15;;;5.20;99.90;;;;;;5093617;28;20558;-53
2021/12/29 00:58:21;;;;;;;2.72;2.20;;;5.30;99.90;;;;;;5093700;28;20024;-54
2021/12/29 01:00:47;;;;;;;4.18;2.03;;;5.30;99.90;;;;;;5093658;28;20024;-55
2021/12/29 01:03:13;;;;;;;3.58;2.17;;;5.40;99.90;;;;;;5093407;28;20028;-53
2021/12/29 01:05:39;;;;;;;9.88;3.83;;;5.40;99.90;;;;;;5093470;28;20020;-55
2021/12/29 01:08:06;;;;;;;2.22;2.08;;;5.40;99.90;;;;;;5093195;28;20024;-54
2021/12/29 01:10:33;;;;;;;5.38;2.47;;;5.40;99.90;;;;;;5093308;28;20043;-52
2021/12/29 01:13:01;;;;;;;5.03;2.22;;;5.60;99.90;;;;;;5093232;28;20370;-55
2021/12/29 01:15:34;;;;;;;2.67;2.47;;;5.60;99.90;;;;;;5092319;28;20467;-53
2021/12/29 01:18:05;;;;;;;3.40;2.10;;;5.60;99.90;;;;;;5093383;28;20028;-53
2021/12/29 01:20:32;;;;;;;2.30;1.77;;;5.60;99.90;;;;;;5092408;28;20032;-55
2021/12/29 01:22:59;;;;;;;5.32;2.50;;;5.50;99.90;;;;;;5092833;28;20039;-56
2021/12/29 01:25:25;;;;;;;3.42;2.20;;;5.40;99.90;;;;;;5093047;28;20045;-55
2021/12/29 01:27:51;;;;;;;2.40;2.15;;;5.50;99.90;;;;;;5093053;28;20429;-53
2021/12/29 01:30:18;;;;;;;4.82;2.25;;;5.40;99.90;;;;;;5074729;28;20032;-55
2021/12/29 01:32:43;;;;;;;3.60;2.42;;;5.30;99.90;;;;;;5092875;28;20020;-55
2021/12/29 01:35:11;;;;;;;2.60;2.17;;;5.30;99.90;;;;;;5074587;28;20030;-55
2021/12/29 01:37:36;;;;;;;4.25;2.30;;;5.40;99.90;;;;;;5092751;28;20028;-53
2021/12/29 01:40:11;;;;;;;3.10;2.28;;;5.30;99.90;;;;;;5092997;28;20039;-53
2021/12/29 01:42:37;;;;;;;6.07;3.03;;;5.40;99.90;;;;;;5092731;28;20032;-55
2021/12/29 01:45:04;;;;;;;5.13;2.58;;;5.30;99.90;;;;;;5092735;28;20031;-54
2021/12/29 01:47:31;;;;;;;3.95;2.22;;;5.30;99.90;;;;;;5092582;28;20690;-55
2021/12/29 01:50:00;;;;;;;6.28;2.45;;;5.30;99.90;;;;;;5092538;28;20036;-53
2021/12/29 01:52:29;;;;;;;4.82;2.38;;;5.40;99.90;;;;;;5092431;28;20024;-54
2021/12/29 01:54:55;;;;;;;6.18;2.47;;;5.40;99.90;;;;;;5092161;28;20425;-54
2021/12/29 01:57:21;;;;;;;9.57;2.65;;;5.40;99.90;;;;;;5092137;28;20111;-54
2021/12/29 01:59:47;;;;;;;5.75;2.85;;;5.40;99.90;;;;;;5092521;28;20616;-54
2021/12/29 02:02:14;;;;;;;8.02;2.70;;;5.50;99.90;;;;;;5092394;28;20436;-56
2021/12/29 02:04:44;;;;;;;4.57;3.40;;;5.50;99.90;;;;;;5092422;28;20048;-56
2021/12/29 02:07:10;;;;;;;7.13;2.40;;;5.60;99.90;;;;;;5092166;28;20028;-56
2021/12/29 02:09:36;;;;;;;11.55;2.90;;;5.50;99.90;;;;;;5092171;28;20524;-53
2021/12/29 02:12:03;;;;;;;5.70;2.35;;;5.60;99.90;;;;;;5092062;28;20024;-55
2021/12/29 02:14:29;;;;;;;7.43;2.88;;;5.70;99.90;;;;;;5092123;28;20421;-56
2021/12/29 02:16:54;;;;;;;4.25;2.25;;;5.70;99.90;;;;;;5092195;28;20020;-55
2021/12/29 02:19:26;;;;;;;4.07;2.67;;;5.70;99.90;;;;;;5092088;28;20024;-53
2021/12/29 02:22:01;;;;;;;10.63;2.70;;;5.70;99.90;;;;;;5092246;28;20488;-55
2021/12/29 02:24:42;;;;;;;6.82;2.58;;;5.70;99.90;;;;;;5091421;28;20024;-56
2021/12/29 02:27:11;;;;;;;9.65;3.03;;;5.80;99.90;;;;;;5071965;28;20028;-54
2021/12/29 02:29:38;;;;;;;5.03;2.78;;;5.80;99.90;;;;;;5071597;28;20024;-55
2021/12/29 02:32:04;;;;;;;5.88;2.55;;;5.90;99.90;;;;;;5071749;28;20031;-55
2021/12/29 02:34:30;;;;;;;8.98;2.67;;;6.00;99.90;;;;;;5053539;28;20512;-54
2021/12/29 02:36:58;;;;;;;4.80;2.45;;;6.00;99.90;;;;;;5071774;28;20381;-54
2021/12/29 02:39:24;;;;;;;6.18;2.80;;;6.00;99.90;;;;;;5072900;28;20055;-55
2021/12/29 02:41:54;;;;;;;10.15;3.00;;;6.10;99.90;;;;;;5091863;28;20062;-54
2021/12/29 02:44:28;;;;;;;6.43;2.75;;;6.20;99.90;;;;;;5091503;28;20024;-54
2021/12/29 02:46:56;;;;;;;5.70;2.50;;;6.20;99.90;;;;;;5091753;28;20111;-56
2021/12/29 02:49:22;;;;;;;4.13;2.50;;;6.20;99.90;;;;;;5091647;28;20046;-55
2021/12/29 02:51:48;;;;;;;6.90;3.05;;;6.20;99.90;;;;;;5091714;28;20431;-55
2021/12/29 02:54:16;;;;;;;13.23;3.10;;;6.10;99.90;;;;;;5091432;28;20059;-55
2021/12/29 02:56:42;;;;;;;4.25;2.67;;;6.10;99.90;;;;;;5091760;28;20093;-55
2021/12/29 02:59:08;;;;;;;7.32;2.70;;;6.10;99.90;;;;;;5091539;28;20028;-53
2021/12/29 03:01:34;;;;;;;9.10;2.58;;;6.10;99.90;;;;;;5091661;28;20039;-55
2021/12/29 03:04:04;;;;;;;10.25;4.20;;;6.10;99.90;;;;;;5091596;28;20020;-52
2021/12/29 03:06:30;;;;;;;4.35;2.30;;;6.20;99.90;;;;;;5091316;28;20035;-56
2021/12/29 03:08:56;;;;;;;8.68;2.92;;;6.10;99.90;;;;;;5091131;28;20064;-56
2021/12/29 03:11:22;;;;;;;5.32;2.85;;;6.10;99.90;;;;;;5091699;28;20581;-55
2021/12/29 03:13:48;;;;;;;11.57;3.00;;;6.10;99.90;;;;;;5091338;28;20020;-55
2021/12/29 03:16:14;;;;;;;7.03;2.95;;;6.10;99.90;;;;;;5091360;28;20350;-55
2021/12/29 03:18:40;;;;;;;5.85;3.10;;;6.10;99.90;;;;;;5091523;28;20020;-56
2021/12/29 03:21:06;;;;;;;7.60;2.97;;;6.10;99.90;;;;;;5091616;28;20162;-54
2021/12/29 03:23:31;;;;;;;8.77;3.30;;;6.10;99.90;;;;;;5091100;28;20103;-55
2021/12/29 03:25:58;;;;;;;20.13;4.13;;;6.10;99.90;;;;;;5091439;28;20430;-55
2021/12/29 03:28:29;;;;;;;8.85;3.58;;;6.10;99.90;;;;;;5091088;28;20423;-56
2021/12/29 03:30:56;;;;;;;9.68;2.85;;;6.00;99.90;;;;;;5091457;28;20107;-55
2021/12/29 03:33:24;;;;;;;4.95;3.15;;;6.10;99.90;;;;;;5091314;28;20012;-55
2021/12/29 03:35:53;;;;;;;10.60;3.22;;;6.00;99.90;;;;;;5091365;28;20027;-54
2021/12/29 03:38:22;;;;;;;10.48;3.65;;;6.00;99.90;;;;;;5091035;28;20132;-55
2021/12/29 03:40:48;;;;;;;13.32;2.80;;;6.00;99.90;;;;;;5091440;28;20039;-53
2021/12/29 03:43:14;;;;;;;9.95;3.20;;;6.00;99.90;;;;;;5093724;28;20024;-55
2021/12/29 03:45:41;;;;;;;13.48;3.33;;;6.00;99.90;;;;;;5094808;28;20028;-54
2021/12/29 03:48:09;;;;;;;11.50;2.67;;;6.10;99.90;;;;;;5095106;28;20024;-55
2021/12/29 03:50:35;;;;;;;7.15;2.75;;;6.10;99.90;;;;;;5094715;28;20036;-54
2021/12/29 03:53:02;;;;;;;12.02;3.40;;;6.10;99.90;;;;;;5095030;28;20050;-54
2021/12/29 03:55:28;;;;;;;12.88;2.80;;;6.10;99.90;;;;;;5094361;28;20048;-55
2021/12/29 03:57:53;;;;;;;16.15;3.30;;;6.10;99.90;;;;;;5094914;28;20511;-55
2021/12/29 04:00:20;;;;;;;6.35;2.80;;;6.20;99.90;;;;;;5094632;28;20027;-52
2021/12/29 04:02:47;;;;;;;11.02;2.70;;;6.20;99.90;;;;;;5094946;28;20035;-55
2021/12/29 04:05:15;;;;;;;12.88;3.35;;;6.20;99.90;;;;;;5094689;28;20028;-55
2021/12/29 04:07:41;;;;;;;6.93;2.50;;;6.20;99.90;;;;;;5094456;28;20097;-54
2021/12/29 04:10:09;;;;;;;10.20;2.70;;;6.20;99.90;;;;;;5094517;28;20035;-53
2021/12/29 04:12:36;;;;;;;5.15;2.72;;;6.20;99.90;;;;;;5094531;28;20051;-55
2021/12/29 04:15:03;;;;;;;7.15;2.67;;;6.20;99.90;;;;;;5094596;28;20028;-55
2021/12/29 04:17:36;;;;;;;19.77;4.43;;;6.20;99.90;;;;;;5094526;28;20397;-52
2021/12/29 04:22:54;;;;;;;9.20;2.65;;;6.20;99.90;;;;;;5094465;28;20051;-55
2021/12/29 04:25:24;;;;;;;13.00;3.10;;;6.20;99.90;;;;;;5094305;28;20036;-54
2021/12/29 04:27:57;;;;;;;10.70;3.95;;;6.20;99.90;;;;;;5094448;28;20020;-53
2021/12/29 04:30:24;;;;;;;;;;;6.30;99.90;;;;;;5094365;28;20028;-55
2021/12/29 04:32:52;;;;;;;7.45;3.25;;;6.30;99.90;;;;;;5094180;28;19934;-56
2021/12/29 04:35:18;;;;;;;10.52;2.83;;;6.30;99.90;;;;;;5093919;28;20102;-54
2021/12/29 04:37:46;;;;;;;8.63;2.55;;;6.30;99.90;;;;;;5094195;28;20020;-55
2021/12/29 04:40:11;;;;;;;15.40;5.45;;;6.30;99.90;;;;;;5094031;28;20372;-54
2021/12/29 04:42:37;;;;;;;5.30;2.97;;;6.20;99.90;;;;;;5093310;28;20062;-54
2021/12/29 04:45:04;;;;;;;11.57;3.33;;;6.30;99.90;;;;;;5093947;28;20024;-55
2021/12/29 04:47:31;;;;;;;14.60;3.25;;;6.30;99.90;;;;;;5093787;28;20028;-55
2021/12/29 04:50:03;;;;;;;10.50;3.20;;;6.30;99.90;;;;;;5093020;28;20028;-54
2021/12/29 04:52:30;;;;;;;9.35;3.75;;;6.30;99.90;;;;;;5093003;28;20100;-53
2021/12/29 04:54:57;;;;;;;12.20;3.88;;;6.30;99.90;;;;;;5091617;28;20044;-54
2021/12/29 04:57:22;;;;;;;9.75;2.97;;;6.30;99.90;;;;;;5092719;28;20024;-56
2021/12/29 04:59:48;;;;;;;15.30;3.63;;;6.30;99.90;;;;;;5092578;28;20077;-54
2021/12/29 05:02:14;;;;;;;5.68;2.65;;;6.30;99.90;;;;;;5092772;28;20029;-51
2021/12/29 05:04:55;;;;;;;13.55;3.45;;;6.40;99.90;;;;;;5092916;28;20123;-52
2021/12/29 05:10:05;;;;;;;5.28;2.72;;;6.40;99.90;;;;;;5092850;28;20057;-56
2021/12/29 05:12:31;;;;;;;8.30;3.45;;;6.50;99.90;;;;;;5092477;28;20073;-55
2021/12/29 05:14:57;;;;;;;11.18;4.97;;;6.50;99.90;;;;;;5093435;28;20101;-52
2021/12/29 05:17:22;;;;;;;8.65;3.58;;;6.50;99.90;;;;;;5093240;28;20024;-56
2021/12/29 05:19:48;;;;;;;12.98;2.90;;;6.50;99.90;;;;;;5093509;28;20036;-54
2021/12/29 05:22:14;;;;;;;23.67;6.15;;;6.50;99.90;;;;;;5092860;28;20471;-56
2021/12/29 05:24:39;;;;;;;62.95;28.17;;;6.60;99.90;;;;;;5093170;28;20031;-53
2021/12/29 05:27:05;;;;;;;9.40;3.10;;;6.60;99.90;;;;;;5074911;28;20046;-56
2021/12/29 05:29:31;;;;;;;16.35;4.40;;;6.60;99.90;;;;;;5092938;28;20020;-55
2021/12/29 05:31:56;;;;;;;8.57;3.28;;;6.60;99.90;;;;;;5093133;28;20049;-56
2021/12/29 05:34:22;;;;;;;16.33;4.05;;;6.60;99.90;;;;;;5092884;28;20500;-56
2021/12/29 05:36:48;;;;;;;13.85;2.88;;;6.60;99.90;;;;;;5092608;28;20059;-53
2021/12/29 05:39:13;;;;;;;9.52;2.85;;;6.70;99.90;;;;;;5092854;28;20032;-56
2021/12/29 05:41:40;;;;;;;16.77;5.10;;;6.70;99.90;;;;;;5092674;28;20048;-56
2021/12/29 05:44:06;;;;;;;8.07;2.88;;;6.70;99.90;;;;;;5093023;28;20514;-56
2021/12/29 05:46:32;;;;;;;6.82;2.85;;;6.70;99.90;;;;;;5092700;28;20074;-54
2021/12/29 05:48:58;;;;;;;8.98;2.80;;;6.60;99.90;;;;;;5092634;28;20386;-55
2021/12/29 05:51:24;;;;;;;7.93;2.75;;;6.60;99.90;;;;;;5092271;28;20016;-52
2021/12/29 05:53:50;;;;;;;4.65;2.03;;;6.60;99.90;;;;;;5074367;28;20460;-53
2021/12/29 05:56:16;;;;;;;19.88;3.75;;;6.60;99.90;;;;;;5092751;28;20060;-53
2021/12/29 05:58:42;;;;;;;12.13;2.97;;;6.60;99.90;;;;;;5092553;28;20028;-53
2021/12/29 06:01:09;;;;;;;5.78;2.75;;;6.60;99.90;;;;;;5092554;28;20090;-55
2021/12/29 06:03:38;;;;;;;7.10;1.98;;;6.60;99.90;;;;;;5092588;28;20012;-55
2021/12/29 06:06:04;;;;;;;3.25;2.08;;;6.70;99.90;;;;;;5091763;28;20438;-55
2021/12/29 06:08:30;;;;;;;2.83;1.88;;;6.70;99.90;;;;;;5092128;28;20095;-54
2021/12/29 06:10:55;;;;;;;4.72;2.33;;;6.60;99.90;;;;;;5091186;28;20582;-55
2021/12/29 06:13:21;;;;;;;4.65;2.22;;;6.60;99.90;;;;;;5091562;28;20017;-56
2021/12/29 06:15:47;;;;;;;3.70;2.70;;;6.60;99.90;;;;;;5091841;28;20020;-55
2021/12/29 06:18:13;;;;;;;9.70;4.35;;;6.60;99.90;;;;;;5091872;28;20065;-56
2021/12/29 06:20:39;;;;;;;12.18;7.30;;;6.60;99.90;;;;;;5091814;28;20360;-56
2021/12/29 06:23:06;;;;;;;8.95;5.65;;;6.60;99.90;;;;;;5090813;28;20028;-52
2021/12/29 06:25:33;;;;;;;4.70;1.98;;;6.60;99.90;;;;;;5070724;28;20031;-52
2021/12/29 06:27:59;;;;;;;3.30;2.20;;;6.60;99.90;;;;;;5089992;28;20034;-52
2021/12/29 06:30:25;;;;;;;1.98;1.80;;;6.60;99.90;;;;;;5090128;28;20061;-54
2021/12/29 06:32:51;;;;;;;3.53;2.28;;;6.60;99.90;;;;;;5090115;28;20435;-54
2021/12/29 06:35:17;;;;;;;8.73;2.55;;;6.60;99.90;;;;;;5090264;28;20030;-51
2021/12/29 06:37:44;;;;;;;6.32;3.20;;;6.60;99.90;;;;;;5090070;28;20020;-54
2021/12/29 06:40:10;;;;;;;4.72;2.40;;;6.50;99.90;;;;;;5089982;28;20034;-52
2021/12/29 06:42:36;;;;;;;2.75;1.98;;;6.50;99.90;;;;;;5089676;28;20028;-56
2021/12/29 06:45:03;;;;;;;3.42;2.10;;;6.60;99.90;;;;;;5090006;28;20390;-55
2021/12/29 06:47:29;;;;;;;3.05;1.90;;;6.60;99.90;;;;;;5090160;28;20035;-54
2021/12/29 06:49:54;;;;;;;3.50;2.55;;;6.60;99.90;;;;;;5090126;28;20439;-53
2021/12/29 06:52:20;;;;;;;5.70;2.10;;;6.60;99.90;;;;;;5089733;28;20027;-53
2021/12/29 06:54:46;;;;;;;3.70;2.20;;;6.60;99.90;;;;;;5090718;28;20085;-55
2021/12/29 06:57:12;;;;;;;4.82;2.25;;;6.60;99.90;;;;;;5091055;28;20024;-56
2021/12/29 06:59:38;;;;;;;5.35;3.20;;;6.50;99.90;;;;;;5091345;28;20024;-53
2021/12/29 07:02:04;;;;;;;2.38;1.80;;;6.60;99.90;;;;;;5091370;28;20024;-54
2021/12/29 07:04:30;;;;;;;4.43;2.08;;;6.60;99.90;;;;;;5071969;28;20115;-54
2021/12/29 07:06:57;;;;;;;4.25;2.42;;;6.60;99.90;;;;;;5072745;28;20085;-55
2021/12/29 07:09:23;;;;;;;3.78;2.00;;;6.60;99.90;;;;;;5089538;28;20123;-54
2021/12/29 07:11:48;;;;;;;3.65;2.40;;;6.60;99.90;;;;;;5065143;28;20123;-55
2021/12/29 07:14:14;;;;;;;3.08;2.10;;;6.60;99.90;;;;;;5077687;28;20021;-56
2021/12/29 07:16:44;;;;;;;4.45;2.10;;;6.60;99.90;;;;;;5090527;28;20016;-53
2021/12/29 07:19:10;;;;;;;5.78;2.78;;;6.60;99.90;;;;;;5095373;28;20036;-55
2021/12/29 07:21:36;;;;;;;5.95;2.13;;;6.60;99.90;;;;;;5094395;28;20028;-55
2021/12/29 07:24:01;;;;;;;3.85;2.05;;;6.70;99.90;;;;;;5093982;28;20024;-50
2021/12/29 07:26:27;;;;;;;3.40;2.20;;;6.70;99.90;;;;;;5094003;28;20043;-50
2021/12/29 07:28:53;;;;;;;6.55;3.00;;;6.60;99.90;;;;;;5093892;28;20387;-49
2021/12/29 07:31:25;;;;;;;4.07;2.83;;;6.70;99.90;;;;;;5094009;28;20024;-51
2021/12/29 07:33:51;;;;;;;5.20;2.13;;;6.70;99.90;;;;;;5095463;28;20065;-51
2021/12/29 07:36:17;;;;;;;4.68;2.55;;;6.70;99.90;;;;;;5094609;28;20024;-52
2021/12/29 07:38:44;;;;;;;3.40;2.13;;;6.60;99.90;;;;;;5094567;28;20126;-54
2021/12/29 07:41:10;;;;;;;6.85;2.17;;;6.70;99.90;;;;;;5095204;28;20035;-50
2021/12/29 07:43:37;;;;;;;5.97;2.50;;;6.70;99.90;;;;;;5094613;28;20028;-50
2021/12/29 07:46:03;;;;;;;4.25;2.00;;;6.70;99.90;;;;;;5076412;28;20528;-54
2021/12/29 07:48:30;;;;;;;7.90;2.08;;;6.70;99.90;;;;;;5094675;28;20111;-50
2021/12/29 07:50:57;;;;;;;2.63;1.90;;;6.70;99.90;;;;;;5092596;28;20085;-50
2021/12/29 07:53:23;;;;;;;3.55;2.88;;;6.70;99.90;;;;;;5093266;28;20027;-50
2021/12/29 07:55:48;;;;;;;9.88;5.78;;;6.70;99.90;;;;;;5075401;28;20040;-50
2021/12/29 07:58:15;;;;;;;4.65;2.80;;;6.70;99.90;;;;;;5075928;28;20059;-51
2021/12/29 08:00:42;;;;;;;4.40;2.58;;;6.70;99.90;;;;;;5076489;28;20066;-53
2021/12/29 08:03:10;;;;;;;9.57;2.60;;;6.70;99.90;;;;;;5094770;28;20107;-54
2021/12/29 08:05:36;;;;;;;4.60;2.72;;;6.70;99.90;;;;;;5093755;28;20559;-51
2021/12/29 08:08:05;;;;;;;5.47;3.08;;;6.70;99.90;;;;;;5074387;28;20119;-53
2021/12/29 08:10:31;;;;;;;2.55;2.05;;;6.70;99.90;;;;;;5092159;28;20475;-55
2021/12/29 08:12:57;;;;;;;5.43;2.88;;;6.70;99.90;;;;;;5093284;28;20024;-51
2021/12/29 08:15:23;;;;;;;3.20;2.83;;;6.80;99.90;;;;;;5092889;28;20028;-49
2021/12/29 08:17:50;;;;;;;5.15;2.60;;;6.80;99.90;;;;;;5094415;28;20012;-50
2021/12/29 08:20:15;;;;;;;3.08;2.08;;;6.70;99.90;;;;;;5094066;28;20032;-51
2021/12/29 08:22:41;;;;;;;3.28;2.92;;;6.70;99.90;;;;;;5073717;28;20054;-50
2021/12/29 08:25:07;;;;;;;8.60;4.53;;;6.70;99.90;;;;;;5089373;28;20028;-51
2021/12/29 08:27:33;;;;;;;20.13;7.03;;;6.80;99.90;;;;;;5091897;28;20016;-49
2021/12/29 08:29:59;;;;;;;35.75;13.70;;;6.80;99.90;;;;;;5092435;28;20070;-51
2021/12/29 08:32:26;;;;;;;10.75;4.22;;;6.80;99.90;;;;;;5091142;28;20119;-51
2021/12/29 08:34:52;;;;;;;15.90;6.18;;;6.80;99.90;;;;;;5092673;28;20059;-50
2021/12/29 08:37:18;;;;;;;3.45;2.58;;;6.80;99.90;;;;;;5074193;28;20012;-50
2021/12/29 08:39:44;;;;;;;12.32;5.97;;;6.80;99.90;;;;;;5092307;28;20383;-49
2021/12/29 08:42:11;;;;;;;3.45;2.50;;;6.80;99.90;;;;;;5092209;28;20028;-52
2021/12/29 08:44:37;;;;;;;12.48;5.70;;;6.80;99.90;;;;;;5092196;28;20040;-51
2021/12/29 08:47:03;;;;;;;36.92;13.07;;;6.80;99.90;;;;;;5092079;28;20360;-52
2021/12/29 08:49:29;;;;;;;8.70;4.18;;;6.80;99.90;;;;;;5091960;28;20020;-50
2021/12/29 08:51:56;;;;;;;5.80;4.35;;;6.80;99.90;;;;;;5068281;28;20031;-51
2021/12/29 08:54:23;;;;;;;3.13;2.70;;;6.80;99.90;;;;;;5080228;28;20055;-52
2021/12/29 08:56:49;;;;;;;7.13;2.25;;;6.90;99.90;;;;;;5091827;28;20024;-49
2021/12/29 08:59:14;;;;;;;5.60;2.80;;;6.90;99.90;;;;;;5091795;28;20047;-52
2021/12/29 09:01:40;;;;;;;3.75;2.63;;;6.90;99.90;;;;;;5091121;28;20028;-52
2021/12/29 09:04:07;;;;;;;5.47;2.63;;;7.00;99.90;;;;;;5090497;28;20035;-52
2021/12/29 09:06:33;;;;;;;3.78;2.60;;;7.00;99.90;;;;;;5091670;28;20438;-51
2021/12/29 09:08:59;;;;;;;3.83;2.20;;;7.00;99.90;;;;;;5090784;28;20039;-53
2021/12/29 09:11:25;;;;;;;6.80;2.75;;;7.00;99.90;;;;;;5091861;28;20467;-50
2021/12/29 09:13:53;;;;;;;5.47;2.83;;;7.00;99.90;;;;;;5091774;28;20047;-50
2021/12/29 09:16:19;;;;;;;6.32;2.33;;;7.10;99.90;;;;;;5091670;28;20032;-52
2021/12/29 09:18:45;;;;;;;7.72;2.67;;;7.20;99.90;;;;;;5091677;28;20069;-51
2021/12/29 09:21:14;;;;;;;2.30;1.90;;;7.20;99.90;;;;;;5091811;28;20054;-51
2021/12/29 09:23:41;;;;;;;6.40;3.60;;;7.20;99.90;;;;;;5091791;28;20441;-50
2021/12/29 09:26:09;;;;;;;6.00;2.33;;;7.20;99.90;;;;;;5090583;28;20038;-51
2021/12/29 09:28:35;;;;;;;4.93;2.40;;;7.30;99.90;;;;;;5091614;28;20016;-54
2021/12/29 09:31:01;;;;;;;6.88;2.50;;;7.30;99.90;;;;;;5091240;28;20028;-51
2021/12/29 09:33:27;;;;;;;4.07;2.35;;;7.30;99.90;;;;;;5092447;28;20491;-51
2021/12/29 09:36:01;;;;;;;3.33;2.33;;;7.30;99.90;;;;;;5074722;28;20024;-51
2021/12/29 09:38:27;;;;;;;2.47;1.90;;;7.30;99.90;;;;;;5092359;28;20018;-53
2021/12/29 09:40:53;;;;;;;4.07;2.10;;;7.30;99.90;;;;;;5092075;28;20023;-50
2021/12/29 09:43:20;;;;;;;3.80;1.60;;;7.40;99.90;;;;;;5092692;28;20024;-51
2021/12/29 09:45:47;;;;;;;5.32;2.10;;;7.40;99.90;;;;;;5074599;28;20036;-52
2021/12/29 09:48:13;;;;;;;2.55;2.05;;;7.50;99.90;;;;;;5092612;28;20107;-53
2021/12/29 09:50:40;;;;;;;5.82;3.08;;;7.40;99.90;;;;;;5092590;28;20492;-53
2021/12/29 09:53:07;;;;;;;3.10;2.08;;;7.50;99.90;;;;;;5092320;28;20099;-53
2021/12/29 09:55:35;;;;;;;9.82;2.83;;;7.50;99.90;;;;;;5092123;28;20059;-53
2021/12/29 09:58:01;;;;;;;4.05;3.10;;;7.50;99.90;;;;;;5092569;28;20052;-54
2021/12/29 10:00:39;;;;;;;4.22;3.00;;;7.50;99.90;;;;;;5092355;28;20077;-50
2021/12/29 10:03:08;;;;;;;7.20;3.45;;;7.50;99.90;;;;;;5092374;28;20028;-51
2021/12/29 10:05:36;;;;;;;6.72;2.28;;;7.60;99.90;;;;;;5092245;28;20020;-53
2021/12/29 10:08:13;;;;;;;4.00;2.65;;;7.60;99.90;;;;;;5092187;28;20498;-50
2021/12/29 10:10:42;;;;;;;5.22;2.35;;;7.60;99.90;;;;;;5090857;28;20024;-50
2021/12/29 10:13:09;;;;;;;7.38;5.72;;;7.70;99.90;;;;;;5090942;28;20221;-50
2021/12/29 10:15:50;;;;;;;4.00;2.45;;;7.70;99.90;;;;;;5090914;28;20020;-51
2021/12/29 10:18:19;;;;;;;5.50;2.72;;;7.70;99.90;;;;;;5072332;28;20020;-51
2021/12/29 10:21:00;;;;;;;4.03;2.97;;;7.70;99.90;;;;;;5091758;28;20024;-53
2021/12/29 10:23:35;;;;;;;5.90;3.53;;;7.90;99.90;;;;;;5091570;28;20032;-50
2021/12/29 10:26:10;;;;;;;3.03;1.90;;;7.80;99.90;;;;;;5092110;28;20118;-51
2021/12/29 10:28:39;;;;;;;2.13;1.75;;;7.80;99.90;;;;;;5091715;28;20356;-51
2021/12/29 10:31:13;;;;;;;2.55;2.10;;;7.80;99.90;;;;;;5091785;28;20084;-51
2021/12/29 10:33:50;;;;;;;3.78;1.83;;;7.80;99.90;;;;;;5091949;28;20036;-50
2021/12/29 10:36:27;;;;;;;2.63;2.42;;;7.80;99.90;;;;;;5073659;28;20067;-53
2021/12/29 10:38:59;;;;;;;3.88;1.80;;;7.70;99.90;;;;;;5091271;28;20038;-50
2021/12/29 10:41:26;;;;;;;3.42;1.92;;;7.80;99.90;;;;;;5091677;28;20039;-53
2021/12/29 10:44:02;;;;;;;2.53;2.15;;;7.80;99.90;;;;;;5091689;28;20020;-51
2021/12/29 10:46:31;;;;;;;2.67;1.92;;;7.70;99.90;;;;;;5091322;28;20026;-51
2021/12/29 10:48:59;;;;;;;2.05;1.88;;;7.70;99.90;;;;;;5091772;28;20099;-50
2021/12/29 10:51:43;;;;;;;5.13;1.90;;;7.70;99.90;;;;;;5073207;28;20514;-50
2021/12/29 10:54:13;;;;;;;2.85;1.85;;;7.60;99.90;;;;;;5091258;28;20043;-52
2021/12/29 10:56:42;;;;;;;2.10;1.90;;;7.50;99.90;;;;;;5090523;28;20021;-51
2021/12/29 10:59:13;;;;;;;3.20;2.30;;;7.50;99.90;;;;;;5091612;28;20429;-54
2021/12/29 11:01:38;;;;;;;4.22;2.65;;;7.50;99.90;;;;;;5091439;28;20023;-54
2021/12/29 11:04:04;;;;;;;2.33;2.05;;;7.40;99.90;;;;;;5091001;28;20499;-54
2021/12/29 11:06:30;;;;;;;4.45;1.98;;;7.30;99.90;;;;;;5091290;28;20032;-49
2021/12/29 11:08:58;;;;;;;4.25;3.03;;;7.30;99.90;;;;;;5091351;28;20028;-51
2021/12/29 11:11:34;;;;;;;13.10;6.30;;;7.20;99.90;;;;;;5091356;28;20024;-50
2021/12/29 11:14:42;;;;;;;20.88;9.18;;;7.20;99.90;;;;;;5091551;28;20016;-53
2021/12/29 11:17:37;;;;;;;35.63;15.07;;;7.20;99.90;;;;;;5073428;28;20379;-56
2021/12/29 11:20:02;;;;;;;21.42;7.93;;;7.20;99.90;;;;;;5071251;28;20093;-54
2021/12/29 11:22:29;;;;;;;17.88;8.55;;;7.20;99.90;;;;;;5089303;28;20028;-54
2021/12/29 11:25:00;;;;;;;54.88;19.48;;;7.20;99.90;;;;;;5084845;28;20032;-52
2021/12/29 11:27:29;;;;;;;97.60;29.70;;;7.10;99.90;;;;;;5079983;28;20032;-52
2021/12/29 11:29:56;;;;;;;2.22;2.08;;;7.10;99.90;;;;;;5080358;28;20560;-54
2021/12/29 11:32:34;;;;;;;5.13;1.98;;;7.20;99.90;;;;;;5082332;28;20032;-50
2021/12/29 11:35:12;;;;;;;20.15;11.55;;;7.30;99.90;;;;;;5099763;28;20028;-54
2021/12/29 11:37:41;;;;;;;17.35;12.18;;;7.10;99.90;;;;;;5095679;28;20755;-53
2021/12/29 11:40:09;;;;;;;2.72;2.03;;;7.10;99.90;;;;;;5079595;28;20036;-51
2021/12/29 11:42:35;;;;;;;3.22;1.63;;;7.20;99.90;;;;;;5078566;28;20073;-51
2021/12/29 11:45:00;;;;;;;5.05;4.13;;;7.30;99.90;;;;;;5080802;28;20044;-51
2021/12/29 11:47:27;;;;;;;4.03;3.33;;;7.20;99.90;;;;;;5083691;28;20092;-55
2021/12/29 11:49:53;;;;;;;2.22;2.03;;;7.20;99.90;;;;;;5079690;28;20352;-52
2021/12/29 11:52:34;;;;;;;4.72;3.20;;;7.20;99.90;;;;;;5079549;28;20043;-54
2021/12/29 11:55:12;;;;;;;5.45;2.00;;;7.20;99.90;;;;;;5079622;28;20685;-51
2021/12/29 11:57:38;;;;;;;4.50;2.15;;;7.20;99.90;;;;;;5079843;28;20413;-54
2021/12/29 12:00:12;;;;;;;5.63;2.67;;;7.20;99.90;;;;;;5080367;28;20062;-52
2021/12/29 12:02:39;;;;;;;4.15;2.70;;;7.20;99.90;;;;;;5080139;28;20055;-50
2021/12/29 12:05:11;;;;;;;2.22;2.13;;;7.10;99.90;;;;;;5084201;28;20059;-52
2021/12/29 12:07:37;;;;;;;6.78;2.70;;;7.20;99.90;;;;;;5083754;28;20032;-52
2021/12/29 12:10:09;;;;;;;3.50;2.40;;;7.20;99.90;;;;;;5070382;28;20056;-52
2021/12/29 12:12:45;;;;;;;7.80;2.22;;;7.20;99.90;;;;;;5093643;28;20053;-55
2021/12/29 12:15:12;;;;;;;4.05;2.40;;;7.30;99.90;;;;;;5094575;28;20054;-52
2021/12/29 12:17:39;;;;;;;6.10;2.70;;;7.30;99.90;;;;;;5094598;28;20020;-51
2021/12/29 12:20:14;;;;;;;2.88;2.20;;;7.40;99.90;;;;;;5076299;28;20024;-52
2021/12/29 12:22:44;;;;;;;5.25;2.50;;;7.30;99.90;;;;;;5094594;28;20047;-52
2021/12/29 12:25:10;;;;;;;6.35;3.42;;;7.40;99.90;;;;;;5094355;28;20032;-52
2021/12/29 12:27:38;;;;;;;5.60;2.97;;;7.40;99.90;;;;;;5093993;28;20036;-55
2021/12/29 12:30:19;;;;;;;5.30;2.60;;;7.40;99.90;;;;;;5094172;28;20036;-54
2021/12/29 12:32:56;;;;;;;10.90;2.72;;;7.40;99.90;;;;;;5094065;28;20461;-55
2021/12/29 12:35:34;;;;;;;12.23;2.83;;;7.50;99.90;;;;;;5094070;28;20336;-53
2021/12/29 12:38:16;;;;;;;9.73;3.17;;;7.40;99.90;;;;;;5094123;28;20020;-53
2021/12/29 12:40:43;;;;;;;7.97;3.45;;;7.40;99.90;;;;;;5076130;28;20490;-55
2021/12/29 12:43:12;;;;;;;4.40;3.67;;;7.50;99.90;;;;;;5093640;28;20114;-53
2021/12/29 12:45:51;;;;;;;14.25;3.83;;;7.60;99.90;;;;;;5093872;28;20104;-53
2021/12/29 12:48:32;;;;;;;10.18;3.33;;;7.60;99.90;;;;;;5093559;28;20028;-52
2021/12/29 12:51:02;;;;;;;7.80;2.85;;;7.70;99.90;;;;;;5093805;28;20036;-52
2021/12/29 12:53:34;;;;;;;10.82;4.20;;;7.70;99.90;;;;;;5093691;28;20016;-52
2021/12/29 12:56:03;;;;;;;6.93;3.13;;;7.60;99.90;;;;;;5090533;28;20044;-52
2021/12/29 12:58:35;;;;;;;8.02;4.28;;;7.70;99.90;;;;;;5089844;28;20174;-52
2021/12/29 13:01:24;;;;;;;8.73;3.17;;;7.60;99.90;;;;;;5091654;28;20107;-52
2021/12/29 13:04:03;;;;;;;7.25;3.28;;;7.70;99.90;;;;;;5092156;28;20082;-53
2021/12/29 13:06:34;;;;;;;8.82;3.10;;;7.60;99.90;;;;;;5091028;28;20077;-53